Buitrago, Spain
Current Conditions -  °F | °C
As of 8:00 PM on Sunday 23 Nov 2014 (Local Time) from LETO Reporting Station
Broken Clouds Broken Clouds  
Wind Chill: 61°   Ceiling: 7000
Heat Index: 61°   Visibility: 6mi
Dew Point: 50°   Wind: 3mph
Humidity: 68%   Direction: 100°E
Pressure: 29.94"   Gusts: NA
Location:  41°N, 3.63°W
Report Text: LETO 231900Z 10003KT 9999 FEW050 BKN070 16/10 Q1014 NOSIG
Loading
Personal Weather Stations






























Interactive Weather Map New forecast layout! Learn more

10-Day Weather Forecast

Advertisements
Track Severe Weather on mobile